Avalon Express — WDD7919 — position and weather

sailwx.info

Track history (hours):
 
Tides and Currents Weather Stations Pressure Air Temp Water Temp Dewpoint Dewpoint Depression Visibility Wind Speed Wind Dir Waves Ship Positions

Avalon Express

Owner: RGWT INC, San Pedro, CA. More information available from US FCC via Universal Licensing System and Coast Guard Vessel Documentation Center.

Last reported at 2017-Apr-25 18:31 UTC. Time now 2017-Apr-25 18:30 UTC.
Position N 33°30' W 118°27'.

Type: High speed craft. MMSI: 367192940.

Date/timePositionNaut miles runAvg speedWind from/ knotsBaromVisibWave heightAir tempDewpointWater temp
2017-Apr-25 18:31N 33°30' W 118°27'4 4.6
2017-Apr-25 17:44N 33°27' W 118°29'624.9
2017-Apr-25 17:31N 33°25' W 118°23'510.2
2017-Apr-25 17:00N 33°21' W 118°19'1224.3
2017-Apr-25 16:30N 33°33' W 118°16'1121.8
2017-Apr-25 16:00N 33°44' W 118°16'1 0.0
2017-Apr-24 03:31N 33°45' W 118°16'0 0.0
2017-Apr-24 03:23N 33°45' W 118°16'0 0.0
2017-Apr-24 03:00N 33°45' W 118°16'0 0.0
2017-Apr-24 02:31N 33°45' W 118°16'612.4
2017-Apr-24 02:00N 33°39' W 118°17'16 9.8
2017-Apr-24 00:22N 33°27' W 118°30'1125.3
2017-Apr-23 23:57N 33°35' W 118°21'1021.8
2017-Apr-23 23:30N 33°43' W 118°16'2 3.1
2017-Apr-23 23:00N 33°45' W 118°16'0 0.4
2017-Apr-23 22:30N 33°45' W 118°16'816.2
2017-Apr-23 22:00N 33°37' W 118°19'1324.9
2017-Apr-23 21:30N 33°28' W 118°29'1 1.0
2017-Apr-23 20:34N 33°27' W 118°29'116.0
2017-Apr-23 20:30N 33°27' W 118°28'1825.8
2017-Apr-23 19:49N 33°41' W 118°15'411.5
2017-Apr-23 19:30N 33°45' W 118°16'0 0.0
2017-Apr-23 19:00N 33°45' W 118°16'0 0.0
2017-Apr-23 18:30N 33°45' W 118°16'0 0.0
2017-Apr-23 17:56N 33°45' W 118°16'511.4
2017-Apr-23 17:30N 33°40' W 118°16'1325.7
2017-Apr-23 17:00N 33°30' W 118°26'4 4.7
2017-Apr-23 16:03N 33°27' W 118°29'120.2
2017-Apr-23 16:00N 33°27' W 118°28'1425.5
2017-Apr-23 15:27N 33°38' W 118°18'714.4
2017-Apr-23 15:00N 33°45' W 118°16'0 0.0
2017-Apr-23 14:00N 33°45' W 118°16'0 0.0
2017-Apr-23 13:30N 33°45' W 118°16'0 0.0
2017-Apr-23 13:00N 33°45' W 118°16'0 0.0
2017-Apr-23 07:28N 33°45' W 118°16'0 0.0
2017-Apr-23 07:00N 33°45' W 118°16'0 0.0
2017-Apr-23 06:30N 33°45' W 118°16'0 0.0
2017-Apr-23 06:00N 33°45' W 118°16'2 4.3
2017-Apr-23 05:30N 33°43' W 118°16'1224.0
2017-Apr-23 05:01N 33°31' W 118°17'1121.1
2017-Apr-23 04:31N 33°21' W 118°19'0 0.0
2017-Apr-23 04:00N 33°21' W 118°19'5 9.6
2017-Apr-23 03:31N 33°25' W 118°18'1326.6
2017-Apr-23 03:01N 33°38' W 118°16'713.2
2017-Apr-23 02:30N 33°45' W 118°16'0 0.0
2017-Apr-23 02:00N 33°45' W 118°16'2 3.3
2017-Apr-23 01:31N 33°43' W 118°16'1223.2
2017-Apr-23 01:01N 33°32' W 118°16'1122.6
2017-Apr-23 00:30N 33°21' W 118°19'0 0.0
2017-Apr-23 00:00N 33°21' W 118°19'5 9.6
2017-Apr-22 23:29N 33°26' W 118°18'1226.0
2017-Apr-22 23:00N 33°38' W 118°16'714.3
2017-Apr-22 22:30N 33°45' W 118°16'0 0.0
2017-Apr-22 22:00N 33°45' W 118°16'0 0.0
2017-Apr-22 21:30N 33°45' W 118°16'0 0.0
2017-Apr-22 21:01N 33°45' W 118°16'3 5.8
2017-Apr-22 20:31N 33°42' W 118°15'1326.2
2017-Apr-22 20:01N 33°29' W 118°17'917.6
2017-Apr-22 19:30N 33°21' W 118°19'0 0.0
2017-Apr-22 19:01N 33°21' W 118°19'918.7
2017-Apr-22 18:31N 33°30' W 118°17'1325.2
2017-Apr-22 18:01N 33°42' W 118°15'3 5.9
2017-Apr-22 17:31N 33°45' W 118°16'0 0.0
2017-Apr-22 17:00N 33°45' W 118°16'610.9
2017-Apr-22 16:30N 33°40' W 118°15'1326.3
2017-Apr-22 16:01N 33°27' W 118°18'612.2
2017-Apr-22 15:30N 33°21' W 118°19'510.8
2017-Apr-22 15:01N 33°26' W 118°19'1325.6
2017-Apr-22 14:31N 33°39' W 118°15'6 6.4
2017-Apr-22 13:30N 33°45' W 118°16'0 0.0
2017-Apr-22 13:00N 33°45' W 118°16'0 0.0
2017-Apr-22 12:30N 33°45' W 118°16'0 0.0
2017-Apr-22 12:00N 33°45' W 118°16'0 0.0
2017-Apr-22 11:30N 33°45' W 118°16'0 0.0
2017-Apr-22 02:32N 33°45' W 118°16'0 0.0
2017-Apr-22 02:30N 33°45' W 118°16'0 0.0
2017-Apr-22 02:00N 33°45' W 118°16'1 2.9
2017-Apr-22 01:30N 33°44' W 118°16'1121.8
2017-Apr-22 01:01N 33°33' W 118°16'1224.2
2017-Apr-22 00:30N 33°21' W 118°19'0 0.1
2017-Apr-22 00:00N 33°21' W 118°19'611.7
2017-Apr-21 23:31N 33°26' W 118°17'1326.2
2017-Apr-21 23:01N 33°39' W 118°15'6 7.1
2017-Apr-21 22:12N 33°45' W 118°16'0 0.0
2017-Apr-21 21:52N 33°45' W 118°16'0 0.0
2017-Apr-21 21:29N 33°45' W 118°16'0 0.0
2017-Apr-21 21:01N 33°45' W 118°16'0 0.0
2017-Apr-21 20:30N 33°45' W 118°16'510.0
2017-Apr-21 20:01N 33°40' W 118°17'1325.3
2017-Apr-21 19:30N 33°31' W 118°28'4 8.7
2017-Apr-21 19:00N 33°28' W 118°31'2 2.1
2017-Apr-21 18:12N 33°27' W 118°30'419.0
2017-Apr-21 18:01N 33°29' W 118°27'18 0.4
2017-Apr-19 22:48N 33°45' W 118°16'0 0.0
2017-Apr-19 22:30N 33°45' W 118°16'0 0.2
2017-Apr-19 22:00N 33°45' W 118°16'2 3.8
2017-Apr-19 21:28N 33°43' W 118°16'2 4.3
2017-Apr-19 20:59N 33°45' W 118°16'4 5.0
2017-Apr-19 20:13N 33°41' W 118°15'1226.2
2017-Apr-19 19:46N 33°32' W 118°24'623.1
2017-Apr-19 19:30N 33°28' W 118°29'2 3.6
2017-Apr-19 18:59N 33°28' W 118°31'0 0.5
2017-Apr-19 18:03N 33°28' W 118°31'0 5.2
2017-Apr-19 18:00N 33°28' W 118°31'1325.2
2017-Apr-19 17:30N 33°37' W 118°21'9 0.6
2017-Apr-19 03:01N 33°45' W 118°16'0 0.2
2017-Apr-19 02:59N 33°45' W 118°16'0 0.0
2017-Apr-19 02:27N 33°45' W 118°16'0 0.0
2017-Apr-19 01:56N 33°45' W 118°16'2317.2
2017-Apr-19 00:37N 33°22' W 118°19'2 2.8
2017-Apr-19 00:01N 33°21' W 118°19'110.2
2017-Apr-18 23:54N 33°22' W 118°19'1611.5
2017-Apr-18 22:30N 33°38' W 118°19'713.5
2017-Apr-18 21:59N 33°45' W 118°16'0 0.3
2017-Apr-18 21:30N 33°45' W 118°16'0 0.0
2017-Apr-18 21:00N 33°45' W 118°16'0 0.0
2017-Apr-18 20:30N 33°45' W 118°16'0 0.0
2017-Apr-18 19:58N 33°45' W 118°16'0 0.0
2017-Apr-18 19:30N 33°45' W 118°16'510.7
2017-Apr-18 19:01N 33°40' W 118°18'1426.5
2017-Apr-18 18:28N 33°29' W 118°28'2 3.2
2017-Apr-18 17:52N 33°27' W 118°29'823.5
2017-Apr-18 17:30N 33°23' W 118°20'2 3.1
2017-Apr-18 17:01N 33°22' W 118°19'1324.9
2017-Apr-18 16:28N 33°35' W 118°16'817.6
2017-Apr-18 16:00N 33°44' W 118°16'1 1.8
2017-Apr-18 15:18N 33°45' W 118°16'0 0.1
2017-Apr-18 14:24N 33°45' W 118°16'0 0.0
2017-Apr-17 02:03N 33°45' W 118°16'0 0.3
2017-Apr-17 02:00N 33°45' W 118°16'2 3.4
2017-Apr-17 01:31N 33°43' W 118°16'1122.7
2017-Apr-17 01:00N 33°32' W 118°17'1122.5
2017-Apr-17 00:30N 33°21' W 118°19'0 0.0
2017-Apr-17 00:00N 33°21' W 118°19'3 6.1
2017-Apr-16 23:30N 33°23' W 118°18'1325.9
2017-Apr-16 23:01N 33°36' W 118°15'917.6
2017-Apr-16 22:30N 33°45' W 118°16'0 0.1
2017-Apr-16 22:01N 33°45' W 118°16'0 0.0
2017-Apr-16 21:31N 33°45' W 118°16'0 0.0
2017-Apr-16 21:00N 33°45' W 118°16'2 4.4
2017-Apr-16 20:31N 33°43' W 118°16'1224.9
2017-Apr-16 20:00N 33°30' W 118°17'1018.6
2017-Apr-16 19:28N 33°21' W 118°19'0 0.0
2017-Apr-16 18:58N 33°21' W 118°19'1022.6
2017-Apr-16 18:30N 33°31' W 118°16'1224.5
2017-Apr-16 18:01N 33°43' W 118°16'2 4.1
2017-Apr-16 17:30N 33°45' W 118°16'0 0.0
2017-Apr-16 16:59N 33°45' W 118°16'0 0.2
2017-Apr-16 16:30N 33°45' W 118°16'0 0.0
2017-Apr-16 16:00N 33°45' W 118°16'0 0.0
2017-Apr-16 15:30N 33°45' W 118°16'0 0.1
2017-Apr-16 15:00N 33°45' W 118°16'0 0.1
2017-Apr-16 14:31N 33°45' W 118°16'0 0.0
2017-Apr-16 13:31N 33°45' W 118°16'0 0.0
2017-Apr-16 13:00N 33°45' W 118°16'0 0.1
2017-Apr-16 12:31N 33°45' W 118°16'0 0.0
2017-Apr-15 20:31N 33°45' W 118°16'0 4.6
2017-Apr-15 20:30N 33°45' W 118°16'0 0.0
2017-Apr-15 20:01N 33°45' W 118°16'0 0.2
2017-Apr-15 19:31N 33°45' W 118°16'2 3.9
2017-Apr-15 19:01N 33°43' W 118°16'  
Track history (hours):
 
Tides and Currents Weather Stations Pressure Air Temp Water Temp Dewpoint Dewpoint Depression Visibility Wind Speed Wind Dir Waves Ship Positions

Avalon Express

Owner: RGWT INC, San Pedro, CA. More information available from US FCC via Universal Licensing System and Coast Guard Vessel Documentation Center.

Last reported at 2017-Apr-25 18:31 UTC. Time now 2017-Apr-25 18:30 UTC.
Position N 33°30' W 118°27'.

Type: High speed craft. MMSI: 367192940.

Date/timePositionNaut miles runAvg speedWind from/ knotsBaromVisibWave heightAir tempDewpointWater temp
2017-Apr-25 18:31N 33°30' W 118°27'4 4.6
2017-Apr-25 17:44N 33°27' W 118°29'624.9
2017-Apr-25 17:31N 33°25' W 118°23'510.2
2017-Apr-25 17:00N 33°21' W 118°19'1224.3
2017-Apr-25 16:30N 33°33' W 118°16'1121.8
2017-Apr-25 16:00N 33°44' W 118°16'1 0.0
2017-Apr-24 03:31N 33°45' W 118°16'0 0.0
2017-Apr-24 03:23N 33°45' W 118°16'0 0.0
2017-Apr-24 03:00N 33°45' W 118°16'0 0.0
2017-Apr-24 02:31N 33°45' W 118°16'612.4
2017-Apr-24 02:00N 33°39' W 118°17'16 9.8
2017-Apr-24 00:22N 33°27' W 118°30'1125.3
2017-Apr-23 23:57N 33°35' W 118°21'1021.8
2017-Apr-23 23:30N 33°43' W 118°16'2 3.1
2017-Apr-23 23:00N 33°45' W 118°16'0 0.4
2017-Apr-23 22:30N 33°45' W 118°16'816.2
2017-Apr-23 22:00N 33°37' W 118°19'1324.9
2017-Apr-23 21:30N 33°28' W 118°29'1 1.0
2017-Apr-23 20:34N 33°27' W 118°29'116.0
2017-Apr-23 20:30N 33°27' W 118°28'1825.8
2017-Apr-23 19:49N 33°41' W 118°15'411.5
2017-Apr-23 19:30N 33°45' W 118°16'0 0.0
2017-Apr-23 19:00N 33°45' W 118°16'0 0.0
2017-Apr-23 18:30N 33°45' W 118°16'0 0.0
2017-Apr-23 17:56N 33°45' W 118°16'511.4
2017-Apr-23 17:30N 33°40' W 118°16'1325.7
2017-Apr-23 17:00N 33°30' W 118°26'4 4.7
2017-Apr-23 16:03N 33°27' W 118°29'120.2
2017-Apr-23 16:00N 33°27' W 118°28'1425.5
2017-Apr-23 15:27N 33°38' W 118°18'714.4
2017-Apr-23 15:00N 33°45' W 118°16'0 0.0
2017-Apr-23 14:00N 33°45' W 118°16'0 0.0
2017-Apr-23 13:30N 33°45' W 118°16'0 0.0
2017-Apr-23 13:00N 33°45' W 118°16'0 0.0
2017-Apr-23 07:28N 33°45' W 118°16'0 0.0
2017-Apr-23 07:00N 33°45' W 118°16'0 0.0
2017-Apr-23 06:30N 33°45' W 118°16'0 0.0
2017-Apr-23 06:00N 33°45' W 118°16'2 4.3
2017-Apr-23 05:30N 33°43' W 118°16'1224.0
2017-Apr-23 05:01N 33°31' W 118°17'1121.1
2017-Apr-23 04:31N 33°21' W 118°19'0 0.0
2017-Apr-23 04:00N 33°21' W 118°19'5 9.6
2017-Apr-23 03:31N 33°25' W 118°18'1326.6
2017-Apr-23 03:01N 33°38' W 118°16'713.2
2017-Apr-23 02:30N 33°45' W 118°16'0 0.0
2017-Apr-23 02:00N 33°45' W 118°16'2 3.3
2017-Apr-23 01:31N 33°43' W 118°16'1223.2
2017-Apr-23 01:01N 33°32' W 118°16'1122.6
2017-Apr-23 00:30N 33°21' W 118°19'0 0.0
2017-Apr-23 00:00N 33°21' W 118°19'5 9.6
2017-Apr-22 23:29N 33°26' W 118°18'1226.0
2017-Apr-22 23:00N 33°38' W 118°16'714.3
2017-Apr-22 22:30N 33°45' W 118°16'0 0.0
2017-Apr-22 22:00N 33°45' W 118°16'0 0.0
2017-Apr-22 21:30N 33°45' W 118°16'0 0.0
2017-Apr-22 21:01N 33°45' W 118°16'3 5.8
2017-Apr-22 20:31N 33°42' W 118°15'1326.2
2017-Apr-22 20:01N 33°29' W 118°17'917.6
2017-Apr-22 19:30N 33°21' W 118°19'0 0.0
2017-Apr-22 19:01N 33°21' W 118°19'918.7
2017-Apr-22 18:31N 33°30' W 118°17'1325.2
2017-Apr-22 18:01N 33°42' W 118°15'3 5.9
2017-Apr-22 17:31N 33°45' W 118°16'0 0.0
2017-Apr-22 17:00N 33°45' W 118°16'610.9
2017-Apr-22 16:30N 33°40' W 118°15'1326.3
2017-Apr-22 16:01N 33°27' W 118°18'612.2
2017-Apr-22 15:30N 33°21' W 118°19'510.8
2017-Apr-22 15:01N 33°26' W 118°19'1325.6
2017-Apr-22 14:31N 33°39' W 118°15'6 6.4
2017-Apr-22 13:30N 33°45' W 118°16'0 0.0
2017-Apr-22 13:00N 33°45' W 118°16'0 0.0
2017-Apr-22 12:30N 33°45' W 118°16'0 0.0
2017-Apr-22 12:00N 33°45' W 118°16'0 0.0
2017-Apr-22 11:30N 33°45' W 118°16'0 0.0
2017-Apr-22 02:32N 33°45' W 118°16'0 0.0
2017-Apr-22 02:30N 33°45' W 118°16'0 0.0
2017-Apr-22 02:00N 33°45' W 118°16'1 2.9
2017-Apr-22 01:30N 33°44' W 118°16'1121.8
2017-Apr-22 01:01N 33°33' W 118°16'1224.2
2017-Apr-22 00:30N 33°21' W 118°19'0 0.1
2017-Apr-22 00:00N 33°21' W 118°19'611.7
2017-Apr-21 23:31N 33°26' W 118°17'1326.2
2017-Apr-21 23:01N 33°39' W 118°15'6 7.1
2017-Apr-21 22:12N 33°45' W 118°16'0 0.0
2017-Apr-21 21:52N 33°45' W 118°16'0 0.0
2017-Apr-21 21:29N 33°45' W 118°16'0 0.0
2017-Apr-21 21:01N 33°45' W 118°16'0 0.0
2017-Apr-21 20:30N 33°45' W 118°16'510.0
2017-Apr-21 20:01N 33°40' W 118°17'1325.3
2017-Apr-21 19:30N 33°31' W 118°28'4 8.7
2017-Apr-21 19:00N 33°28' W 118°31'2 2.1
2017-Apr-21 18:12N 33°27' W 118°30'419.0
2017-Apr-21 18:01N 33°29' W 118°27'18 0.4
2017-Apr-19 22:48N 33°45' W 118°16'0 0.0
2017-Apr-19 22:30N 33°45' W 118°16'0 0.2
2017-Apr-19 22:00N 33°45' W 118°16'2 3.8
2017-Apr-19 21:28N 33°43' W 118°16'2 4.3
2017-Apr-19 20:59N 33°45' W 118°16'4 5.0
2017-Apr-19 20:13N 33°41' W 118°15'1226.2
2017-Apr-19 19:46N 33°32' W 118°24'623.1
2017-Apr-19 19:30N 33°28' W 118°29'2 3.6
2017-Apr-19 18:59N 33°28' W 118°31'0 0.5
2017-Apr-19 18:03N 33°28' W 118°31'0 5.2
2017-Apr-19 18:00N 33°28' W 118°31'1325.2
2017-Apr-19 17:30N 33°37' W 118°21'9 0.6
2017-Apr-19 03:01N 33°45' W 118°16'0 0.2
2017-Apr-19 02:59N 33°45' W 118°16'0 0.0
2017-Apr-19 02:27N 33°45' W 118°16'0 0.0
2017-Apr-19 01:56N 33°45' W 118°16'2317.2
2017-Apr-19 00:37N 33°22' W 118°19'2 2.8
2017-Apr-19 00:01N 33°21' W 118°19'110.2
2017-Apr-18 23:54N 33°22' W 118°19'1611.5
2017-Apr-18 22:30N 33°38' W 118°19'713.5
2017-Apr-18 21:59N 33°45' W 118°16'0 0.3
2017-Apr-18 21:30N 33°45' W 118°16'0 0.0
2017-Apr-18 21:00N 33°45' W 118°16'0 0.0
2017-Apr-18 20:30N 33°45' W 118°16'0 0.0
2017-Apr-18 19:58N 33°45' W 118°16'0 0.0
2017-Apr-18 19:30N 33°45' W 118°16'510.7
2017-Apr-18 19:01N 33°40' W 118°18'1426.5
2017-Apr-18 18:28N 33°29' W 118°28'2 3.2
2017-Apr-18 17:52N 33°27' W 118°29'823.5
2017-Apr-18 17:30N 33°23' W 118°20'2 3.1
2017-Apr-18 17:01N 33°22' W 118°19'1324.9
2017-Apr-18 16:28N 33°35' W 118°16'817.6
2017-Apr-18 16:00N 33°44' W 118°16'1 1.8
2017-Apr-18 15:18N 33°45' W 118°16'0 0.1
2017-Apr-18 14:24N 33°45' W 118°16'0 0.0
2017-Apr-17 02:03N 33°45' W 118°16'0 0.3
2017-Apr-17 02:00N 33°45' W 118°16'2 3.4
2017-Apr-17 01:31N 33°43' W 118°16'1122.7
2017-Apr-17 01:00N 33°32' W 118°17'1122.5
2017-Apr-17 00:30N 33°21' W 118°19'0 0.0
2017-Apr-17 00:00N 33°21' W 118°19'3 6.1
2017-Apr-16 23:30N 33°23' W 118°18'1325.9
2017-Apr-16 23:01N 33°36' W 118°15'917.6
2017-Apr-16 22:30N 33°45' W 118°16'0 0.1
2017-Apr-16 22:01N 33°45' W 118°16'0 0.0
2017-Apr-16 21:31N 33°45' W 118°16'0 0.0
2017-Apr-16 21:00N 33°45' W 118°16'2 4.4
2017-Apr-16 20:31N 33°43' W 118°16'1224.9
2017-Apr-16 20:00N 33°30' W 118°17'1018.6
2017-Apr-16 19:28N 33°21' W 118°19'0 0.0
2017-Apr-16 18:58N 33°21' W 118°19'1022.6
2017-Apr-16 18:30N 33°31' W 118°16'1224.5
2017-Apr-16 18:01N 33°43' W 118°16'2 4.1
2017-Apr-16 17:30N 33°45' W 118°16'0 0.0
2017-Apr-16 16:59N 33°45' W 118°16'0 0.2
2017-Apr-16 16:30N 33°45' W 118°16'0 0.0
2017-Apr-16 16:00N 33°45' W 118°16'0 0.0
2017-Apr-16 15:30N 33°45' W 118°16'0 0.1
2017-Apr-16 15:00N 33°45' W 118°16'0 0.1
2017-Apr-16 14:31N 33°45' W 118°16'0 0.0
2017-Apr-16 13:31N 33°45' W 118°16'0 0.0
2017-Apr-16 13:00N 33°45' W 118°16'0 0.1
2017-Apr-16 12:31N 33°45' W 118°16'0 0.0
2017-Apr-15 20:31N 33°45' W 118°16'0 4.6
2017-Apr-15 20:30N 33°45' W 118°16'0 0.0
2017-Apr-15 20:01N 33°45' W 118°16'0 0.2
2017-Apr-15 19:31N 33°45' W 118°16'2 3.9
2017-Apr-15 19:01N 33°43' W 118°16'  

Dump ship's entire track history